sensor_id;sensor_type;location;lat;lon;timestamp;pressure;altitude;pressure_sealevel;temperature;humidity
64614;BME280;51025;37.772;-122.432;2022-07-22T00:01:28;101000.60;;;19.30;31.28
64614;BME280;51025;37.772;-122.432;2022-07-22T00:03:57;100997.53;;;20.24;31.17
64614;BME280;51025;37.772;-122.432;2022-07-22T00:06:26;101007.01;;;20.14;31.29
64614;BME280;51025;37.772;-122.432;2022-07-22T00:08:54;101007.96;;;19.81;31.30
64614;BME280;51025;37.772;-122.432;2022-07-22T00:11:24;101006.24;;;20.32;31.16
64614;BME280;51025;37.772;-122.432;2022-07-22T00:13:53;100999.20;;;20.62;30.84
64614;BME280;51025;37.772;-122.432;2022-07-22T00:16:21;100994.02;;;20.45;30.98
64614;BME280;51025;37.772;-122.432;2022-07-22T00:18:49;100985.89;;;20.09;30.96
64614;BME280;51025;37.772;-122.432;2022-07-22T00:21:17;100988.08;;;20.37;31.04
64614;BME280;51025;37.772;-122.432;2022-07-22T00:23:46;100988.73;;;20.53;30.90
64614;BME280;51025;37.772;-122.432;2022-07-22T00:26:15;100984.52;;;20.28;31.09
64614;BME280;51025;37.772;-122.432;2022-07-22T00:28:43;100984.34;;;19.88;31.14
64614;BME280;51025;37.772;-122.432;2022-07-22T00:31:12;100989.91;;;20.61;30.81
64614;BME280;51025;37.772;-122.432;2022-07-22T00:33:40;100986.96;;;20.38;30.97
64614;BME280;51025;37.772;-122.432;2022-07-22T00:36:10;100988.93;;;20.36;30.97
64614;BME280;51025;37.772;-122.432;2022-07-22T00:38:39;100981.37;;;20.21;31.09
64614;BME280;51025;37.772;-122.432;2022-07-22T00:41:07;100984.58;;;20.25;31.06
64614;BME280;51025;37.772;-122.432;2022-07-22T00:43:57;100971.28;;;20.18;31.16
64614;BME280;51025;37.772;-122.432;2022-07-22T00:46:27;100965.15;;;20.15;31.16
64614;BME280;51025;37.772;-122.432;2022-07-22T00:48:56;100949.71;;;19.94;31.04
64614;BME280;51025;37.772;-122.432;2022-07-22T00:51:27;100952.88;;;20.15;31.21
64614;BME280;51025;37.772;-122.432;2022-07-22T00:53:56;100947.23;;;20.21;31.17
64614;BME280;51025;37.772;-122.432;2022-07-22T00:56:25;100943.28;;;20.19;31.19
64614;BME280;51025;37.772;-122.432;2022-07-22T00:58:55;100943.62;;;20.03;31.34
64614;BME280;51025;37.772;-122.432;2022-07-22T01:01:26;100941.45;;;19.82;31.20
64614;BME280;51025;37.772;-122.432;2022-07-22T01:03:55;100946.81;;;19.80;31.23
64614;BME280;51025;37.772;-122.432;2022-07-22T01:06:24;100942.32;;;20.12;31.29
64614;BME280;51025;37.772;-122.432;2022-07-22T01:08:53;100939.18;;;20.70;31.15
64614;BME280;51025;37.772;-122.432;2022-07-22T01:11:22;100937.19;;;20.47;31.01
64614;BME280;51025;37.772;-122.432;2022-07-22T01:13:52;100940.74;;;20.06;31.38
64614;BME280;51025;37.772;-122.432;2022-07-22T01:16:21;100935.14;;;20.29;31.18
64614;BME280;51025;37.772;-122.432;2022-07-22T01:18:49;100941.83;;;20.15;31.31
64614;BME280;51025;37.772;-122.432;2022-07-22T01:21:18;100931.88;;;19.94;31.42
64614;BME280;51025;37.772;-122.432;2022-07-22T01:23:46;100933.80;;;20.08;31.29
64614;BME280;51025;37.772;-122.432;2022-07-22T01:26:15;100923.98;;;20.81;30.99
64614;BME280;51025;37.772;-122.432;2022-07-22T01:28:43;100926.16;;;20.82;30.56
64614;BME280;51025;37.772;-122.432;2022-07-22T01:31:12;100929.40;;;20.44;30.97
64614;BME280;51025;37.772;-122.432;2022-07-22T01:33:41;100928.67;;;20.27;31.15
64614;BME280;51025;37.772;-122.432;2022-07-22T01:36:11;100931.00;;;19.85;31.61
64614;BME280;51025;37.772;-122.432;2022-07-22T01:38:39;100937.17;;;19.91;31.58
64614;BME280;51025;37.772;-122.432;2022-07-22T01:41:08;100942.38;;;20.05;31.47
64614;BME280;51025;37.772;-122.432;2022-07-22T01:43:37;100943.57;;;20.15;31.42
64614;BME280;51025;37.772;-122.432;2022-07-22T01:46:06;100951.26;;;20.26;31.33
64614;BME280;51025;37.772;-122.432;2022-07-22T01:48:35;100946.48;;;20.21;31.07
64614;BME280;51025;37.772;-122.432;2022-07-22T01:51:04;100943.24;;;20.71;30.92
64614;BME280;51025;37.772;-122.432;2022-07-22T01:53:32;100940.11;;;20.35;30.53
64614;BME280;51025;37.772;-122.432;2022-07-22T01:56:01;100954.92;;;21.49;30.14
64614;BME280;51025;37.772;-122.432;2022-07-22T01:58:30;100954.26;;;20.71;30.23
64614;BME280;51025;37.772;-122.432;2022-07-22T02:00:59;100944.06;;;21.70;30.05
64614;BME280;51025;37.772;-122.432;2022-07-22T02:03:27;100945.77;;;21.18;29.90
64614;BME280;51025;37.772;-122.432;2022-07-22T02:05:55;100938.16;;;21.49;30.17
64614;BME280;51025;37.772;-122.432;2022-07-22T02:08:25;100941.79;;;22.12;30.12
64614;BME280;51025;37.772;-122.432;2022-07-22T02:10:53;100931.93;;;21.87;30.54
64614;BME280;51025;37.772;-122.432;2022-07-22T02:13:22;100940.00;;;22.10;30.39
64614;BME280;51025;37.772;-122.432;2022-07-22T02:15:51;100941.39;;;21.95;30.41
64614;BME280;51025;37.772;-122.432;2022-07-22T02:18:19;100950.92;;;22.24;30.67
64614;BME280;51025;37.772;-122.432;2022-07-22T02:20:47;100954.53;;;21.86;30.73
64614;BME280;51025;37.772;-122.432;2022-07-22T02:23:16;100960.58;;;21.79;30.79
64614;BME280;51025;37.772;-122.432;2022-07-22T02:25:45;100974.21;;;21.47;31.05
64614;BME280;51025;37.772;-122.432;2022-07-22T02:28:14;100971.52;;;21.53;30.87
64614;BME280;51025;37.772;-122.432;2022-07-22T02:30:43;100973.10;;;22.33;30.49
64614;BME280;51025;37.772;-122.432;2022-07-22T02:33:12;100981.79;;;21.47;30.95
64614;BME280;51025;37.772;-122.432;2022-07-22T02:35:41;100985.13;;;22.15;30.26
64614;BME280;51025;37.772;-122.432;2022-07-22T02:38:09;100986.20;;;22.02;30.43
64614;BME280;51025;37.772;-122.432;2022-07-22T02:40:38;100974.97;;;21.56;30.38
64614;BME280;51025;37.772;-122.432;2022-07-22T02:43:07;100981.37;;;21.58;30.29
64614;BME280;51025;37.772;-122.432;2022-07-22T02:45:36;100982.55;;;21.53;30.27
64614;BME280;51025;37.772;-122.432;2022-07-22T02:48:05;100987.35;;;21.80;30.39
64614;BME280;51025;37.772;-122.432;2022-07-22T02:50:33;100983.62;;;21.49;30.27
64614;BME280;51025;37.772;-122.432;2022-07-22T02:53:02;100982.48;;;21.00;30.63
64614;BME280;51025;37.772;-122.432;2022-07-22T02:55:31;100982.02;;;20.77;30.58
64614;BME280;51025;37.772;-122.432;2022-07-22T02:58:05;100970.91;;;21.88;30.49
64614;BME280;51025;37.772;-122.432;2022-07-22T03:00:33;100966.40;;;20.84;30.71
64614;BME280;51025;37.772;-122.432;2022-07-22T03:03:02;100962.28;;;22.19;30.14
64614;BME280;51025;37.772;-122.432;2022-07-22T03:05:31;100962.02;;;20.87;30.32
64614;BME280;51025;37.772;-122.432;2022-07-22T03:08:00;100957.55;;;21.02;30.42
64614;BME280;51025;37.772;-122.432;2022-07-22T03:10:29;100957.68;;;20.82;30.59
64614;BME280;51025;37.772;-122.432;2022-07-22T03:12:57;100955.81;;;21.23;30.59
64614;BME280;51025;37.772;-122.432;2022-07-22T03:15:26;100961.36;;;20.99;30.42
64614;BME280;51025;37.772;-122.432;2022-07-22T03:17:55;100957.47;;;21.09;30.66
64614;BME280;51025;37.772;-122.432;2022-07-22T03:20:24;100959.75;;;21.34;30.73
64614;BME280;51025;37.772;-122.432;2022-07-22T03:22:53;100963.03;;;21.27;30.79
64614;BME280;51025;37.772;-122.432;2022-07-22T03:25:22;100974.29;;;20.84;30.79
64614;BME280;51025;37.772;-122.432;2022-07-22T03:27:51;100968.52;;;20.37;30.88
64614;BME280;51025;37.772;-122.432;2022-07-22T03:30:20;100962.52;;;21.32;30.65
64614;BME280;51025;37.772;-122.432;2022-07-22T03:32:49;100964.01;;;21.04;30.89
64614;BME280;51025;37.772;-122.432;2022-07-22T03:35:18;100969.62;;;20.92;30.62
64614;BME280;51025;37.772;-122.432;2022-07-22T03:37:46;100978.30;;;21.10;30.81
64614;BME280;51025;37.772;-122.432;2022-07-22T03:40:15;100983.68;;;21.19;30.69
64614;BME280;51025;37.772;-122.432;2022-07-22T03:42:44;100987.69;;;20.68;30.82
64614;BME280;51025;37.772;-122.432;2022-07-22T03:45:13;100996.08;;;20.56;30.89
64614;BME280;51025;37.772;-122.432;2022-07-22T03:47:42;100999.56;;;20.96;30.50
64614;BME280;51025;37.772;-122.432;2022-07-22T03:50:11;101001.93;;;20.95;30.87
64614;BME280;51025;37.772;-122.432;2022-07-22T03:52:40;101009.49;;;20.79;31.01
64614;BME280;51025;37.772;-122.432;2022-07-22T03:55:09;101011.00;;;20.77;30.94
64614;BME280;51025;37.772;-122.432;2022-07-22T03:57:38;101017.05;;;20.43;30.95
64614;BME280;51025;37.772;-122.432;2022-07-22T04:00:08;101014.46;;;20.78;30.90
64614;BME280;51025;37.772;-122.432;2022-07-22T04:02:37;101011.39;;;20.20;31.11
64614;BME280;51025;37.772;-122.432;2022-07-22T04:05:07;101017.31;;;20.25;31.06
64614;BME280;51025;37.772;-122.432;2022-07-22T04:07:35;101012.48;;;20.73;30.93
64614;BME280;51025;37.772;-122.432;2022-07-22T04:10:05;101014.11;;;20.45;31.18
64614;BME280;51025;37.772;-122.432;2022-07-22T04:12:34;101004.51;;;20.16;31.09
64614;BME280;51025;37.772;-122.432;2022-07-22T04:15:04;101009.41;;;20.56;31.03
64614;BME280;51025;37.772;-122.432;2022-07-22T04:17:33;101009.29;;;19.65;31.16
64614;BME280;51025;37.772;-122.432;2022-07-22T04:20:02;101008.56;;;20.38;31.17
64614;BME280;51025;37.772;-122.432;2022-07-22T04:22:31;101009.00;;;19.62;31.16
64614;BME280;51025;37.772;-122.432;2022-07-22T04:24:59;101010.99;;;20.42;31.11
64614;BME280;51025;37.772;-122.432;2022-07-22T04:27:28;101010.59;;;19.68;31.05
64614;BME280;51025;37.772;-122.432;2022-07-22T04:29:57;101012.76;;;20.37;31.13
64614;BME280;51025;37.772;-122.432;2022-07-22T04:32:26;101002.56;;;20.50;31.04
64614;BME280;51025;37.772;-122.432;2022-07-22T04:34:55;101006.24;;;20.47;31.04
64614;BME280;51025;37.772;-122.432;2022-07-22T04:37:25;101004.59;;;20.34;31.12
64614;BME280;51025;37.772;-122.432;2022-07-22T04:39:53;101015.71;;;19.99;31.11
64614;BME280;51025;37.772;-122.432;2022-07-22T04:42:23;101015.55;;;20.24;31.17
64614;BME280;51025;37.772;-122.432;2022-07-22T04:44:56;101010.90;;;20.25;31.15
64614;BME280;51025;37.772;-122.432;2022-07-22T04:47:25;101020.18;;;20.25;31.12
64614;BME280;51025;37.772;-122.432;2022-07-22T04:49:53;101021.18;;;19.96;31.07
64614;BME280;51025;37.772;-122.432;2022-07-22T04:52:22;101014.72;;;20.20;31.11
64614;BME280;51025;37.772;-122.432;2022-07-22T04:54:51;101013.20;;;20.15;31.15
64614;BME280;51025;37.772;-122.432;2022-07-22T04:57:20;101013.43;;;20.18;31.10
64614;BME280;51025;37.772;-122.432;2022-07-22T04:59:49;101008.69;;;19.80;31.12
64614;BME280;51025;37.772;-122.432;2022-07-22T05:02:18;101014.50;;;20.13;31.13
64614;BME280;51025;37.772;-122.432;2022-07-22T05:04:46;101022.19;;;20.07;31.16
64614;BME280;51025;37.772;-122.432;2022-07-22T05:07:15;101028.63;;;20.06;31.14
64614;BME280;51025;37.772;-122.432;2022-07-22T05:09:44;101022.45;;;20.06;31.13
64614;BME280;51025;37.772;-122.432;2022-07-22T05:12:13;101027.56;;;20.56;31.06
64614;BME280;51025;37.772;-122.432;2022-07-22T05:14:42;101030.84;;;19.85;31.28
64614;BME280;51025;37.772;-122.432;2022-07-22T05:17:11;101035.70;;;19.97;31.15
64614;BME280;51025;37.772;-122.432;2022-07-22T05:19:41;101034.95;;;19.92;31.19
64614;BME280;51025;37.772;-122.432;2022-07-22T05:22:09;101036.04;;;19.92;31.16
64614;BME280;51025;37.772;-122.432;2022-07-22T05:24:38;101033.27;;;19.96;31.12
64614;BME280;51025;37.772;-122.432;2022-07-22T05:27:07;101030.36;;;19.83;31.23
64614;BME280;51025;37.772;-122.432;2022-07-22T05:29:35;101030.62;;;19.75;31.29
64614;BME280;51025;37.772;-122.432;2022-07-22T05:32:04;101028.91;;;19.82;31.20
64614;BME280;51025;37.772;-122.432;2022-07-22T05:34:32;101030.45;;;19.81;31.20
64614;BME280;51025;37.772;-122.432;2022-07-22T05:37:00;101025.95;;;19.88;31.15
64614;BME280;51025;37.772;-122.432;2022-07-22T05:39:29;101028.65;;;19.48;31.15
64614;BME280;51025;37.772;-122.432;2022-07-22T05:41:58;101026.68;;;20.33;31.06
64614;BME280;51025;37.772;-122.432;2022-07-22T05:44:27;101022.16;;;19.77;31.18
64614;BME280;51025;37.772;-122.432;2022-07-22T05:46:55;101026.25;;;19.69;31.25
64614;BME280;51025;37.772;-122.432;2022-07-22T05:49:24;101022.78;;;19.75;31.16
64614;BME280;51025;37.772;-122.432;2022-07-22T05:51:52;101026.61;;;19.72;31.19
64614;BME280;51025;37.772;-122.432;2022-07-22T05:54:21;101026.69;;;19.58;31.29
64614;BME280;51025;37.772;-122.432;2022-07-22T05:56:49;101028.27;;;19.71;31.11
64614;BME280;51025;37.772;-122.432;2022-07-22T05:59:18;101024.56;;;20.15;31.10
64614;BME280;51025;37.772;-122.432;2022-07-22T06:01:46;101023.93;;;19.55;31.24
64614;BME280;51025;37.772;-122.432;2022-07-22T06:04:15;101018.59;;;19.65;31.12
64614;BME280;51025;37.772;-122.432;2022-07-22T06:06:44;101032.88;;;20.03;31.16
64614;BME280;51025;37.772;-122.432;2022-07-22T06:09:12;101041.84;;;19.88;31.31
64614;BME280;51025;37.772;-122.432;2022-07-22T06:11:41;101040.61;;;19.97;31.20
64614;BME280;51025;37.772;-122.432;2022-07-22T06:14:10;101037.37;;;19.51;31.21
64614;BME280;51025;37.772;-122.432;2022-07-22T06:16:38;101033.92;;;19.44;31.26
64614;BME280;51025;37.772;-122.432;2022-07-22T06:19:06;101024.92;;;19.76;30.94
64614;BME280;51025;37.772;-122.432;2022-07-22T06:21:34;101019.63;;;20.13;30.95
64614;BME280;51025;37.772;-122.432;2022-07-22T06:24:03;101018.40;;;19.61;31.06
64614;BME280;51025;37.772;-122.432;2022-07-22T06:26:32;101026.78;;;19.54;31.08
64614;BME280;51025;37.772;-122.432;2022-07-22T06:29:01;101032.80;;;20.16;30.91
64614;BME280;51025;37.772;-122.432;2022-07-22T06:31:30;101029.51;;;19.57;31.05
64614;BME280;51025;37.772;-122.432;2022-07-22T06:33:58;101027.08;;;19.81;31.20
64614;BME280;51025;37.772;-122.432;2022-07-22T06:36:27;101023.10;;;19.26;31.33
64614;BME280;51025;37.772;-122.432;2022-07-22T06:38:55;101027.71;;;19.84;31.17
64614;BME280;51025;37.772;-122.432;2022-07-22T06:41:25;101014.14;;;20.00;31.35
64614;BME280;51025;37.772;-122.432;2022-07-22T06:43:54;101012.80;;;19.72;31.25
64614;BME280;51025;37.772;-122.432;2022-07-22T06:46:23;101013.11;;;19.87;31.12
64614;BME280;51025;37.772;-122.432;2022-07-22T06:48:52;101003.36;;;19.35;31.22
64614;BME280;51025;37.772;-122.432;2022-07-22T06:51:20;100999.49;;;19.99;30.91
64614;BME280;51025;37.772;-122.432;2022-07-22T06:53:49;101003.45;;;19.77;31.13
64614;BME280;51025;37.772;-122.432;2022-07-22T06:56:17;101002.80;;;20.20;31.06
64614;BME280;51025;37.772;-122.432;2022-07-22T06:58:46;100998.05;;;19.33;31.25
64614;BME280;51025;37.772;-122.432;2022-07-22T07:01:14;100997.65;;;19.42;31.22
64614;BME280;51025;37.772;-122.432;2022-07-22T07:03:43;100997.48;;;19.72;30.91
64614;BME280;51025;37.772;-122.432;2022-07-22T07:06:12;100998.27;;;20.20;31.20
64614;BME280;51025;37.772;-122.432;2022-07-22T07:08:41;100998.09;;;20.03;31.11
64614;BME280;51025;37.772;-122.432;2022-07-22T07:11:10;100996.69;;;19.29;31.41
64614;BME280;51025;37.772;-122.432;2022-07-22T07:13:39;101001.04;;;19.86;31.27
64614;BME280;51025;37.772;-122.432;2022-07-22T07:16:08;100996.37;;;19.47;31.24
64614;BME280;51025;37.772;-122.432;2022-07-22T07:18:36;100998.94;;;19.43;31.23
64614;BME280;51025;37.772;-122.432;2022-07-22T07:21:06;100992.66;;;19.31;31.34
64614;BME280;51025;37.772;-122.432;2022-07-22T07:23:34;100992.30;;;18.82;31.47
64614;BME280;51025;37.772;-122.432;2022-07-22T07:26:03;100986.46;;;19.99;31.42
64614;BME280;51025;37.772;-122.432;2022-07-22T07:28:31;100983.05;;;19.20;31.37
64614;BME280;51025;37.772;-122.432;2022-07-22T07:31:00;100974.55;;;19.88;31.48
64614;BME280;51025;37.772;-122.432;2022-07-22T07:33:28;100979.18;;;18.99;31.52
64614;BME280;51025;37.772;-122.432;2022-07-22T07:35:57;100980.83;;;19.55;31.41
64614;BME280;51025;37.772;-122.432;2022-07-22T07:38:26;100979.50;;;19.81;31.44
64614;BME280;51025;37.772;-122.432;2022-07-22T07:40:54;100982.53;;;19.67;31.25
64614;BME280;51025;37.772;-122.432;2022-07-22T07:43:23;100982.76;;;20.01;31.25
64614;BME280;51025;37.772;-122.432;2022-07-22T07:45:52;100981.40;;;19.49;31.41
64614;BME280;51025;37.772;-122.432;2022-07-22T07:48:20;100975.34;;;19.62;31.28
64614;BME280;51025;37.772;-122.432;2022-07-22T07:50:49;100966.36;;;19.84;31.36
64614;BME280;51025;37.772;-122.432;2022-07-22T07:53:17;100965.45;;;19.94;31.28
64614;BME280;51025;37.772;-122.432;2022-07-22T07:55:47;100962.25;;;19.03;31.41
64614;BME280;51025;37.772;-122.432;2022-07-22T07:58:15;100969.12;;;19.73;31.46
64614;BME280;51025;37.772;-122.432;2022-07-22T08:00:44;100968.80;;;19.26;31.59
64614;BME280;51025;37.772;-122.432;2022-07-22T08:03:13;100968.19;;;19.47;31.38
64614;BME280;51025;37.772;-122.432;2022-07-22T08:05:42;100960.95;;;19.92;31.26
64614;BME280;51025;37.772;-122.432;2022-07-22T08:08:11;100953.02;;;19.83;31.30
64614;BME280;51025;37.772;-122.432;2022-07-22T08:10:40;100949.87;;;19.23;31.57
64614;BME280;51025;37.772;-122.432;2022-07-22T08:13:08;100946.68;;;19.65;31.46
64614;BME280;51025;37.772;-122.432;2022-07-22T08:15:37;100946.65;;;19.08;31.27
64614;BME280;51025;37.772;-122.432;2022-07-22T08:18:06;100950.64;;;19.52;31.58
64614;BME280;51025;37.772;-122.432;2022-07-22T08:20:35;100941.86;;;18.82;31.48
64614;BME280;51025;37.772;-122.432;2022-07-22T08:23:03;100933.87;;;19.63;31.43
64614;BME280;51025;37.772;-122.432;2022-07-22T08:25:32;100930.21;;;19.13;31.53
64614;BME280;51025;37.772;-122.432;2022-07-22T08:28:01;100929.65;;;19.56;31.44
64614;BME280;51025;37.772;-122.432;2022-07-22T08:30:30;100930.28;;;18.82;31.39
64614;BME280;51025;37.772;-122.432;2022-07-22T08:32:59;100932.44;;;19.26;31.68
64614;BME280;51025;37.772;-122.432;2022-07-22T08:35:28;100935.47;;;18.69;31.52
64614;BME280;51025;37.772;-122.432;2022-07-22T08:37:56;100933.74;;;19.42;31.52
64614;BME280;51025;37.772;-122.432;2022-07-22T08:40:26;100931.93;;;19.55;31.38
64614;BME280;51025;37.772;-122.432;2022-07-22T08:42:55;100925.37;;;19.39;31.56
64614;BME280;51025;37.772;-122.432;2022-07-22T08:45:24;100926.60;;;19.60;31.30
64614;BME280;51025;37.772;-122.432;2022-07-22T08:47:54;100926.25;;;19.41;31.49
64614;BME280;51025;37.772;-122.432;2022-07-22T08:50:22;100921.10;;;19.58;31.25
64614;BME280;51025;37.772;-122.432;2022-07-22T08:52:51;100917.72;;;19.41;31.06
64614;BME280;51025;37.772;-122.432;2022-07-22T08:55:20;100918.79;;;19.39;31.39
64614;BME280;51025;37.772;-122.432;2022-07-22T08:57:49;100920.37;;;19.35;31.44
64614;BME280;51025;37.772;-122.432;2022-07-22T09:00:20;100918.41;;;19.16;31.56
64614;BME280;51025;37.772;-122.432;2022-07-22T09:02:49;100916.55;;;19.23;31.52
64614;BME280;51025;37.772;-122.432;2022-07-22T09:05:18;100918.03;;;19.46;31.27
64614;BME280;51025;37.772;-122.432;2022-07-22T09:07:47;100919.74;;;19.39;31.34
64614;BME280;51025;37.772;-122.432;2022-07-22T09:10:17;100920.89;;;19.15;31.57
64614;BME280;51025;37.772;-122.432;2022-07-22T09:12:52;100914.47;;;19.19;31.51
64614;BME280;51025;37.772;-122.432;2022-07-22T09:15:27;100914.91;;;19.03;31.71
64614;BME280;51025;37.772;-122.432;2022-07-22T09:17:59;100918.05;;;19.33;31.38
64614;BME280;51025;37.772;-122.432;2022-07-22T09:20:28;100918.24;;;18.90;31.43
64614;BME280;51025;37.772;-122.432;2022-07-22T09:22:57;100916.15;;;19.23;31.45
64614;BME280;51025;37.772;-122.432;2022-07-22T09:25:29;100914.21;;;19.43;31.24
64614;BME280;51025;37.772;-122.432;2022-07-22T09:28:12;100909.50;;;19.10;31.54
64614;BME280;51025;37.772;-122.432;2022-07-22T09:30:46;100910.54;;;19.17;31.42
64614;BME280;51025;37.772;-122.432;2022-07-22T09:33:15;100910.31;;;19.15;31.48
64614;BME280;51025;37.772;-122.432;2022-07-22T09:35:45;100917.64;;;19.20;31.43
64614;BME280;51025;37.772;-122.432;2022-07-22T09:38:16;100907.98;;;18.96;31.67
64614;BME280;51025;37.772;-122.432;2022-07-22T09:40:46;100919.29;;;19.24;31.37
64614;BME280;51025;37.772;-122.432;2022-07-22T09:43:17;100926.98;;;19.03;31.55
64614;BME280;51025;37.772;-122.432;2022-07-22T09:45:48;100928.94;;;19.33;31.60
64614;BME280;51025;37.772;-122.432;2022-07-22T09:48:18;100931.59;;;19.41;31.55
64614;BME280;51025;37.772;-122.432;2022-07-22T09:50:47;100926.15;;;19.01;31.57
64614;BME280;51025;37.772;-122.432;2022-07-22T09:53:17;100932.74;;;18.87;31.69
64614;BME280;51025;37.772;-122.432;2022-07-22T09:55:46;100931.91;;;19.10;31.45
64614;BME280;51025;37.772;-122.432;2022-07-22T09:58:15;100929.06;;;19.27;31.64
64614;BME280;51025;37.772;-122.432;2022-07-22T10:00:45;100923.89;;;19.31;31.59
64614;BME280;51025;37.772;-122.432;2022-07-22T10:03:18;100927.16;;;18.86;31.68
64614;BME280;51025;37.772;-122.432;2022-07-22T10:05:47;100923.61;;;18.81;31.72
64614;BME280;51025;37.772;-122.432;2022-07-22T10:08:15;100927.56;;;19.24;31.63
64614;BME280;51025;37.772;-122.432;2022-07-22T10:10:44;100933.78;;;18.80;31.75
64614;BME280;51025;37.772;-122.432;2022-07-22T10:13:13;100930.76;;;18.99;31.52
64614;BME280;51025;37.772;-122.432;2022-07-22T10:15:42;100926.86;;;19.02;31.51
64614;BME280;51025;37.772;-122.432;2022-07-22T10:18:15;100925.59;;;19.02;31.83
64614;BME280;51025;37.772;-122.432;2022-07-22T10:20:45;100923.15;;;18.92;31.58
64614;BME280;51025;37.772;-122.432;2022-07-22T10:23:14;100924.52;;;19.07;31.44
64614;BME280;51025;37.772;-122.432;2022-07-22T10:25:52;100927.57;;;18.95;31.51
64614;BME280;51025;37.772;-122.432;2022-07-22T10:28:24;100924.70;;;19.27;31.55
64614;BME280;51025;37.772;-122.432;2022-07-22T10:30:54;100919.31;;;18.72;31.75
64614;BME280;51025;37.772;-122.432;2022-07-22T10:33:36;100913.92;;;18.83;31.67
64614;BME280;51025;37.772;-122.432;2022-07-22T10:36:04;100911.07;;;19.45;31.78
64614;BME280;51025;37.772;-122.432;2022-07-22T10:38:32;100903.74;;;18.51;31.93
64614;BME280;51025;37.772;-122.432;2022-07-22T10:41:03;100907.39;;;18.84;31.59
64614;BME280;51025;37.772;-122.432;2022-07-22T10:43:46;100910.12;;;18.44;31.65
64614;BME280;51025;37.772;-122.432;2022-07-22T10:46:15;100912.31;;;19.05;31.76
64614;BME280;51025;37.772;-122.432;2022-07-22T10:48:46;100913.63;;;18.57;31.84
64614;BME280;51025;37.772;-122.432;2022-07-22T10:51:15;100919.06;;;18.66;31.75
64614;BME280;51025;37.772;-122.432;2022-07-22T10:53:47;100916.24;;;18.59;31.86
64614;BME280;51025;37.772;-122.432;2022-07-22T10:56:20;100914.04;;;19.11;31.68
64614;BME280;51025;37.772;-122.432;2022-07-22T10:58:52;100913.67;;;18.88;31.94
64614;BME280;51025;37.772;-122.432;2022-07-22T11:01:24;100917.32;;;18.68;31.70
64614;BME280;51025;37.772;-122.432;2022-07-22T11:03:54;100916.20;;;18.61;31.79
64614;BME280;51025;37.772;-122.432;2022-07-22T11:06:27;100919.28;;;19.36;31.79
64614;BME280;51025;37.772;-122.432;2022-07-22T11:08:58;100922.13;;;18.46;31.90
64614;BME280;51025;37.772;-122.432;2022-07-22T11:11:37;100925.64;;;18.43;31.98
64614;BME280;51025;37.772;-122.432;2022-07-22T11:14:17;100924.50;;;19.41;31.73
64614;BME280;51025;37.772;-122.432;2022-07-22T11:16:48;100921.91;;;18.57;31.81
64614;BME280;51025;37.772;-122.432;2022-07-22T11:19:21;100923.36;;;18.94;31.83
64614;BME280;51025;37.772;-122.432;2022-07-22T11:21:53;100920.26;;;19.00;31.69
64614;BME280;51025;37.772;-122.432;2022-07-22T11:24:22;100916.19;;;19.46;31.66
64614;BME280;51025;37.772;-122.432;2022-07-22T11:26:53;100916.93;;;18.66;32.00
64614;BME280;51025;37.772;-122.432;2022-07-22T11:29:27;100910.02;;;19.12;31.59
64614;BME280;51025;37.772;-122.432;2022-07-22T11:31:58;100915.18;;;18.92;31.78
64614;BME280;51025;37.772;-122.432;2022-07-22T11:34:27;100912.81;;;18.36;31.98
64614;BME280;51025;37.772;-122.432;2022-07-22T11:36:57;100913.38;;;18.45;31.92
64614;BME280;51025;37.772;-122.432;2022-07-22T11:39:28;100911.25;;;19.06;31.59
64614;BME280;51025;37.772;-122.432;2022-07-22T11:41:57;100916.52;;;18.98;31.67
64614;BME280;51025;37.772;-122.432;2022-07-22T11:44:28;100924.71;;;18.75;31.98
64614;BME280;51025;37.772;-122.432;2022-07-22T11:46:57;100923.25;;;18.77;31.87
64614;BME280;51025;37.772;-122.432;2022-07-22T11:49:28;100926.78;;;19.04;31.56
64614;BME280;51025;37.772;-122.432;2022-07-22T11:51:57;100928.84;;;18.94;31.68
64614;BME280;51025;37.772;-122.432;2022-07-22T11:54:26;100930.47;;;18.52;31.72
64614;BME280;51025;37.772;-122.432;2022-07-22T11:56:55;100933.07;;;18.85;31.72
64614;BME280;51025;37.772;-122.432;2022-07-22T11:59:23;100934.55;;;19.10;31.48
64614;BME280;51025;37.772;-122.432;2022-07-22T12:01:52;100936.06;;;19.21;31.84
64614;BME280;51025;37.772;-122.432;2022-07-22T12:04:22;100942.67;;;18.59;32.01
64614;BME280;51025;37.772;-122.432;2022-07-22T12:06:52;100950.91;;;18.31;31.91
64614;BME280;51025;37.772;-122.432;2022-07-22T12:09:22;100951.14;;;18.47;32.05
64614;BME280;51025;37.772;-122.432;2022-07-22T12:11:52;100953.28;;;18.53;32.03
64614;BME280;51025;37.772;-122.432;2022-07-22T12:14:22;100951.68;;;18.72;31.78
64614;BME280;51025;37.772;-122.432;2022-07-22T12:16:56;100951.22;;;18.62;31.88
64614;BME280;51025;37.772;-122.432;2022-07-22T12:19:27;100949.93;;;18.46;32.00
64614;BME280;51025;37.772;-122.432;2022-07-22T12:21:57;100953.63;;;18.59;31.86
64614;BME280;51025;37.772;-122.432;2022-07-22T12:24:29;100949.95;;;18.09;32.01
64614;BME280;51025;37.772;-122.432;2022-07-22T12:26:59;100952.07;;;18.76;31.74
64614;BME280;51025;37.772;-122.432;2022-07-22T12:29:31;100953.80;;;17.90;31.82
64614;BME280;51025;37.772;-122.432;2022-07-22T12:32:10;100953.50;;;19.01;31.88